Time;durP1;ratioP1;P1;durP2;ratioP2;P2;SDS_P1;SDS_P2;PMS_P1;PMS_P2;Temp;Humidity;BMP_temperature;BMP_pressure;BME280_temperature;BME280_humidity;BME280_pressure;Samples;Min_cycle;Max_cycle;Signal;HPM_P1;HPM_P2
2022/11/12 00:01:41;;;;;;;9.23;6.33;;;;;;;5.38;97.09;103257.44;5010212;28;20206;-72
2022/11/12 00:04:25;;;;;;;9.77;6.73;;;;;;;5.37;98.25;103260.75;5007000;28;20217;-73
2022/11/12 00:07:09;;;;;;;7.90;6.77;;;;;;;5.30;98.03;103255.06;5012017;28;20229;-73
2022/11/12 00:09:54;;;;;;;9.23;6.43;;;;;;;5.23;97.79;103257.88;5010643;28;20727;-72
2022/11/12 00:12:37;;;;;;;8.33;6.37;;;;;;;5.19;98.05;103248.22;5011093;28;20221;-72
2022/11/12 00:15:22;;;;;;;8.57;5.97;;;;;;;5.15;97.68;103256.41;5008905;28;20293;-73
2022/11/12 00:18:06;;;;;;;10.23;6.83;;;;;;;5.13;97.89;103251.19;5007831;28;20245;-73
2022/11/12 00:20:50;;;;;;;7.83;6.63;;;;;;;5.11;97.88;103251.84;5011023;28;20565;-72
2022/11/12 00:23:34;;;;;;;9.70;6.63;;;;;;;5.07;97.94;103255.75;5007851;28;20698;-73
2022/11/12 00:26:19;;;;;;;9.77;7.20;;;;;;;5.04;97.45;103257.16;5007751;28;20756;-72
2022/11/12 00:29:03;;;;;;;11.47;7.10;;;;;;;5.05;97.38;103254.75;5010350;28;20202;-72
2022/11/12 00:31:47;;;;;;;9.07;6.87;;;;;;;5.00;97.92;103253.50;5007557;28;20202;-72
2022/11/12 00:34:32;;;;;;;9.07;7.20;;;;;;;5.01;98.32;103262.03;5010182;28;20328;-72
2022/11/12 00:37:17;;;;;;;9.77;7.23;;;;;;;4.97;97.94;103257.47;5003798;28;20226;-73
2022/11/12 00:40:02;;;;;;;10.03;7.23;;;;;;;4.89;97.51;103255.94;4987397;28;20211;-72
2022/11/12 00:42:46;;;;;;;10.07;7.17;;;;;;;4.86;97.67;103261.66;4994572;28;20564;-73
2022/11/12 00:45:30;;;;;;;11.40;7.83;;;;;;;4.83;97.84;103258.88;4993169;28;20770;-72
2022/11/12 00:48:13;;;;;;;10.30;6.90;;;;;;;4.85;97.94;103254.81;4990486;28;20206;-72
2022/11/12 00:50:59;;;;;;;10.57;7.43;;;;;;;4.87;97.68;103244.75;4999961;28;20198;-72
2022/11/12 00:53:47;;;;;;;9.37;7.20;;;;;;;4.90;98.10;103257.72;4992922;28;20206;-72
2022/11/12 00:56:31;;;;;;;12.17;7.63;;;;;;;4.94;98.27;103257.19;4998659;28;20186;-73
2022/11/12 00:59:15;;;;;;;11.10;7.43;;;;;;;5.05;98.29;103258.94;4987676;28;20268;-72
2022/11/12 01:01:59;;;;;;;11.13;7.30;;;;;;;5.13;98.50;103248.66;5004609;28;20214;-72
2022/11/12 01:04:43;;;;;;;13.63;8.63;;;;;;;5.19;99.25;103251.66;4994881;28;20244;-72
2022/11/12 01:07:27;;;;;;;12.80;8.47;;;;;;;5.24;99.35;103247.84;4988882;28;20219;-73
2022/11/12 01:10:11;;;;;;;10.47;8.67;;;;;;;5.31;100.00;103244.13;4985023;28;20283;-73
2022/11/12 01:12:55;;;;;;;15.13;9.13;;;;;;;5.33;99.94;103251.09;4983318;28;20207;-73
2022/11/12 01:15:41;;;;;;;14.30;10.47;;;;;;;5.38;100.00;103243.84;4987949;28;20230;-72
2022/11/12 01:18:25;;;;;;;14.33;10.47;;;;;;;5.41;100.00;103250.06;4986892;28;20207;-73
2022/11/12 01:21:10;;;;;;;17.53;10.90;;;;;;;5.51;100.00;103250.00;4982878;28;20250;-72
2022/11/12 01:23:56;;;;;;;13.43;9.70;;;;;;;5.53;100.00;103243.38;4985874;28;20590;-72
2022/11/12 01:26:40;;;;;;;14.37;9.80;;;;;;;5.58;100.00;103244.63;4987454;28;20252;-73
2022/11/12 01:29:24;;;;;;;12.63;9.03;;;;;;;5.66;100.00;103255.41;4984944;28;20227;-73
2022/11/12 01:32:08;;;;;;;12.97;9.23;;;;;;;5.73;100.00;103255.09;4980958;28;20596;-73
2022/11/12 01:34:52;;;;;;;15.33;8.70;;;;;;;5.76;100.00;103246.03;4993668;28;20584;-72
2022/11/12 01:37:36;;;;;;;10.97;8.77;;;;;;;5.84;100.00;103249.22;4990108;28;20707;-73
2022/11/12 01:40:20;;;;;;;12.63;9.20;;;;;;;5.87;100.00;103255.44;4989599;28;20201;-73
2022/11/12 01:43:12;;;;;;;13.97;8.77;;;;;;;5.90;100.00;103239.53;4992900;28;20236;-73
2022/11/12 01:45:56;;;;;;;14.87;8.90;;;;;;;5.97;100.00;103247.72;4989850;28;20732;-73
2022/11/12 01:48:57;;;;;;;11.97;8.00;;;;;;;6.00;100.00;103247.97;4988066;28;20206;-73
2022/11/12 01:51:46;;;;;;;11.00;8.37;;;;;;;6.06;100.00;103248.44;4996780;28;20286;-73
2022/11/12 01:54:30;;;;;;;11.63;8.67;;;;;;;6.08;100.00;103236.69;4993168;28;20284;-73
2022/11/12 01:57:19;;;;;;;13.00;9.60;;;;;;;6.14;100.00;103243.91;4997749;28;20218;-73
2022/11/12 02:00:08;;;;;;;15.77;9.70;;;;;;;6.19;100.00;103233.31;4995298;28;20617;-73
2022/11/12 02:02:54;;;;;;;14.07;9.23;;;;;;;6.23;100.00;103236.97;4991686;28;20222;-73
2022/11/12 02:05:39;;;;;;;13.70;9.73;;;;;;;6.30;100.00;103235.00;4986873;28;20226;-73
2022/11/12 02:08:25;;;;;;;14.17;9.20;;;;;;;6.30;100.00;103234.09;4989565;28;20273;-73
2022/11/12 02:11:15;;;;;;;12.03;8.50;;;;;;;6.34;100.00;103243.75;5008416;28;20218;-73
2022/11/12 02:14:02;;;;;;;13.03;9.43;;;;;;;6.36;100.00;103239.66;5000066;28;20227;-73
2022/11/12 02:16:47;;;;;;;13.47;9.30;;;;;;;6.42;100.00;103237.56;4998138;28;20241;-74
2022/11/12 02:19:36;;;;;;;12.50;8.67;;;;;;;6.43;100.00;103250.41;4995116;28;20197;-73
2022/11/12 02:22:20;;;;;;;12.87;8.60;;;;;;;6.49;100.00;103247.44;4993661;28;20198;-73
2022/11/12 02:25:06;;;;;;;12.27;8.97;;;;;;;6.48;100.00;103243.09;4988934;28;20713;-74
2022/11/12 02:27:52;;;;;;;13.90;9.50;;;;;;;6.52;100.00;103242.56;4998651;28;20242;-73
2022/11/12 02:30:45;;;;;;;15.83;9.87;;;;;;;6.55;100.00;103250.44;5002319;28;20237;-73
2022/11/12 02:33:29;;;;;;;12.67;9.23;;;;;;;6.59;100.00;103240.59;4989799;28;20245;-73
2022/11/12 02:36:13;;;;;;;13.30;9.63;;;;;;;6.62;100.00;103245.91;4996688;28;20672;-73
2022/11/12 02:38:57;;;;;;;16.37;10.27;;;;;;;6.65;100.00;103247.78;4992387;28;20253;-73
2022/11/12 02:41:41;;;;;;;15.03;9.90;;;;;;;6.68;100.00;103248.03;4993752;28;20716;-73
2022/11/12 02:44:25;;;;;;;12.77;8.90;;;;;;;6.68;100.00;103246.34;5001572;28;20250;-73
2022/11/12 02:47:09;;;;;;;12.77;9.17;;;;;;;6.71;100.00;103256.78;5004736;28;20214;-73
2022/11/12 02:49:53;;;;;;;14.77;9.77;;;;;;;6.76;100.00;103264.72;5002121;28;20233;-73
2022/11/12 02:52:38;;;;;;;13.23;8.90;;;;;;;6.76;100.00;103255.44;4996517;28;20262;-73
2022/11/12 02:55:22;;;;;;;13.10;9.37;;;;;;;6.78;100.00;103264.06;4993059;28;20607;-74
2022/11/12 02:58:06;;;;;;;10.07;8.13;;;;;;;6.81;100.00;103258.34;4992302;28;20190;-73
2022/11/12 03:00:51;;;;;;;12.20;8.87;;;;;;;6.84;100.00;103272.19;4988397;28;20203;-73
2022/11/12 03:03:34;;;;;;;11.87;8.17;;;;;;;6.86;100.00;103262.97;4995779;28;20198;-72
2022/11/12 03:06:18;;;;;;;11.17;8.10;;;;;;;6.82;100.00;103260.97;4998387;28;20283;-73
2022/11/12 03:09:02;;;;;;;12.17;8.63;;;;;;;6.82;100.00;103260.97;4989903;28;20563;-73
2022/11/12 03:11:46;;;;;;;13.87;9.03;;;;;;;6.83;100.00;103260.22;4991417;28;20199;-73
2022/11/12 03:14:30;;;;;;;13.47;9.53;;;;;;;6.88;100.00;103261.44;4998343;28;20234;-73
2022/11/12 03:17:14;;;;;;;15.37;8.97;;;;;;;6.87;100.00;103267.28;4996913;28;20684;-73
2022/11/12 03:19:58;;;;;;;13.40;9.27;;;;;;;6.93;100.00;103279.59;4995512;28;20231;-73
2022/11/12 03:22:42;;;;;;;12.43;9.63;;;;;;;6.97;100.00;103273.94;5004111;28;20202;-74
2022/11/12 03:25:27;;;;;;;11.30;8.77;;;;;;;6.99;100.00;103272.38;4995704;28;20648;-73
2022/11/12 03:28:14;;;;;;;14.70;10.07;;;;;;;6.98;100.00;103266.41;4997707;28;20317;-73
2022/11/12 03:30:59;;;;;;;14.00;10.00;;;;;;;6.94;100.00;103268.63;4994107;28;20211;-73
2022/11/12 03:33:43;;;;;;;13.50;9.97;;;;;;;6.97;100.00;103277.38;5000567;28;20210;-73
2022/11/12 03:36:27;;;;;;;12.93;9.87;;;;;;;7.03;100.00;103279.47;4993854;28;20195;-73
2022/11/12 03:39:11;;;;;;;14.50;10.00;;;;;;;7.01;100.00;103273.41;4993670;28;20245;-73
2022/11/12 03:41:55;;;;;;;12.70;9.80;;;;;;;6.99;100.00;103270.72;5003559;28;20206;-73
2022/11/12 03:44:39;;;;;;;14.77;9.93;;;;;;;6.99;100.00;103280.03;4991913;28;20230;-74
2022/11/12 03:47:23;;;;;;;16.13;9.77;;;;;;;7.00;100.00;103272.50;5001909;28;20280;-74
2022/11/12 03:50:09;;;;;;;14.27;9.93;;;;;;;6.92;100.00;103262.53;4990628;28;20211;-73
2022/11/12 03:52:55;;;;;;;13.00;10.13;;;;;;;6.81;100.00;103268.53;4995428;28;20226;-73
2022/11/12 03:55:40;;;;;;;13.67;9.70;;;;;;;6.72;100.00;103270.41;4993199;28;20262;-73
2022/11/12 03:58:24;;;;;;;11.83;9.67;;;;;;;6.68;100.00;103279.44;4996836;28;20250;-73
2022/11/12 04:01:08;;;;;;;12.47;10.20;;;;;;;6.65;100.00;103269.06;4999398;28;20704;-73
2022/11/12 04:03:52;;;;;;;14.30;9.67;;;;;;;6.62;100.00;103279.00;4994811;28;20225;-73
2022/11/12 04:09:39;;;;;;;10.90;8.97;;;;;;;6.42;100.00;103265.56;4995138;28;20555;-73
2022/11/12 04:15:25;;;;;;;12.80;10.03;;;;;;;6.25;100.00;103261.75;4992958;28;20230;-74
2022/11/12 04:27:32;;;;;;;13.40;9.50;;;;;;;6.17;100.00;103270.47;4998723;28;20242;-74
2022/11/12 04:30:17;;;;;;;13.00;9.07;;;;;;;6.14;100.00;103275.34;4993519;28;20758;-73
2022/11/12 04:33:01;;;;;;;15.03;9.33;;;;;;;6.07;100.00;103269.63;4993144;28;20187;-73
2022/11/12 04:35:45;;;;;;;13.43;8.93;;;;;;;6.00;100.00;103268.31;4991362;28;20238;-74
2022/11/12 04:38:29;;;;;;;13.47;9.43;;;;;;;5.95;100.00;103268.72;4987566;28;20219;-73
2022/11/12 04:47:19;;;;;;;11.13;9.03;;;;;;;5.73;100.00;103253.44;4993748;28;20217;-72
2022/11/12 04:50:13;;;;;;;11.77;9.17;;;;;;;5.73;99.94;103265.25;5001676;28;20253;-72
2022/11/12 04:52:57;;;;;;;14.13;9.13;;;;;;;5.70;100.00;103277.72;5001723;28;20190;-73
2022/11/12 04:55:41;;;;;;;13.73;10.33;;;;;;;5.69;100.00;103263.25;4990929;28;20229;-73
2022/11/12 04:58:25;;;;;;;14.70;9.77;;;;;;;5.60;100.00;103253.25;4992787;28;20534;-73
2022/11/12 05:01:09;;;;;;;13.63;9.73;;;;;;;5.57;100.00;103269.94;5001228;28;21822;-73
2022/11/12 05:03:53;;;;;;;12.40;9.50;;;;;;;5.48;99.90;103266.66;4991119;28;20751;-72
2022/11/12 05:06:52;;;;;;;17.30;10.33;;;;;;;5.46;100.00;103248.75;4994950;28;20301;-73
2022/11/12 05:09:37;;;;;;;13.43;9.33;;;;;;;5.42;100.00;103269.59;4997745;28;20593;-72
2022/11/12 05:12:20;;;;;;;13.93;9.97;;;;;;;5.38;100.00;103259.09;4996160;28;20290;-72
2022/11/12 05:15:05;;;;;;;15.00;9.67;;;;;;;5.33;100.00;103253.63;5005586;28;20245;-72
2022/11/12 05:17:50;;;;;;;13.87;9.60;;;;;;;5.38;100.00;103265.03;4985296;28;20203;-73
2022/11/12 05:20:34;;;;;;;12.33;10.00;;;;;;;5.36;100.00;103258.97;4992611;28;20202;-73
2022/11/12 05:23:18;;;;;;;16.37;10.00;;;;;;;5.30;100.00;103260.13;4999509;28;20560;-72
2022/11/12 05:26:02;;;;;;;14.40;10.73;;;;;;;5.25;100.00;103266.50;4999940;28;20265;-72
2022/11/12 05:28:46;;;;;;;17.40;11.47;;;;;;;5.22;100.00;103257.00;4996985;28;20731;-72
2022/11/12 05:31:31;;;;;;;15.97;10.40;;;;;;;5.14;100.00;103262.22;4999150;28;20270;-72
2022/11/12 05:34:15;;;;;;;16.47;10.40;;;;;;;5.13;100.00;103268.97;4996854;28;20305;-73
2022/11/12 05:37:01;;;;;;;14.40;10.50;;;;;;;5.15;100.00;103269.09;4990136;28;20680;-72
2022/11/12 05:39:46;;;;;;;14.70;9.73;;;;;;;5.12;100.00;103268.84;5001143;28;20286;-73
2022/11/12 05:42:30;;;;;;;15.30;10.67;;;;;;;5.08;100.00;103266.81;4997083;28;20210;-73
2022/11/12 05:45:14;;;;;;;14.13;10.20;;;;;;;5.05;100.00;103264.00;4996030;28;20213;-72
2022/11/12 05:47:58;;;;;;;14.57;9.83;;;;;;;5.02;100.00;103274.81;4991723;28;20226;-72
2022/11/12 05:50:42;;;;;;;15.00;10.73;;;;;;;4.97;100.00;103270.16;4993444;28;20607;-72
2022/11/12 05:53:26;;;;;;;15.00;10.40;;;;;;;4.97;100.00;103270.16;4995226;28;20210;-73
2022/11/12 05:56:10;;;;;;;14.77;9.37;;;;;;;4.92;100.00;103290.06;4992661;28;20704;-73
2022/11/12 05:58:54;;;;;;;14.53;9.70;;;;;;;4.91;100.00;103287.41;5008015;28;20276;-73
2022/11/12 06:01:45;;;;;;;13.23;9.80;;;;;;;4.89;100.00;103282.22;5000995;28;20242;-73
2022/11/12 06:04:29;;;;;;;14.07;9.50;;;;;;;4.84;100.00;103280.94;5008952;28;20230;-73
2022/11/12 06:07:13;;;;;;;16.67;9.97;;;;;;;4.80;100.00;103285.66;5006600;28;20218;-72
2022/11/12 06:09:57;;;;;;;14.67;10.37;;;;;;;4.68;100.00;103310.00;5008577;28;20202;-72
2022/11/12 06:12:41;;;;;;;17.47;10.57;;;;;;;4.67;100.00;103304.06;5006904;28;20280;-72
2022/11/12 06:15:28;;;;;;;15.57;11.53;;;;;;;4.70;99.97;103309.38;5007937;28;20336;-72
2022/11/12 06:18:12;;;;;;;16.80;10.20;;;;;;;4.59;100.00;103304.19;4998263;28;20249;-73
2022/11/12 06:21:21;;;;;;;13.67;10.13;;;;;;;4.50;100.00;103303.41;5007674;28;20221;-72
2022/11/12 06:24:05;;;;;;;14.53;10.70;;;;;;;4.53;100.00;103312.19;5003591;28;20273;-72
2022/11/12 06:26:49;;;;;;;12.97;9.43;;;;;;;4.49;100.00;103311.78;5007818;28;21063;-73
2022/11/12 06:29:33;;;;;;;14.40;9.87;;;;;;;4.46;100.00;103312.44;5007481;28;20687;-72
2022/11/12 06:32:17;;;;;;;16.40;10.43;;;;;;;4.43;100.00;103317.28;5005857;28;20660;-73
2022/11/12 06:35:01;;;;;;;14.47;10.43;;;;;;;4.43;100.00;103312.19;5003228;28;20285;-72
2022/11/12 06:37:46;;;;;;;14.93;11.17;;;;;;;4.40;100.00;103322.06;5009962;28;20206;-72
2022/11/12 06:40:30;;;;;;;14.73;10.70;;;;;;;4.42;100.00;103318.00;5009244;28;20225;-72
2022/11/12 06:43:14;;;;;;;17.07;12.57;;;;;;;4.45;100.00;103313.19;4998617;28;20312;-72
2022/11/12 06:46:05;;;;;;;16.20;11.70;;;;;;;4.42;100.00;103333.22;5008659;28;20237;-72
2022/11/12 06:48:49;;;;;;;15.90;12.17;;;;;;;4.40;100.00;103333.84;5024828;28;20205;-73
2022/11/12 06:51:33;;;;;;;18.33;11.70;;;;;;;4.39;100.00;103333.00;5018560;28;20198;-73
2022/11/12 06:54:17;;;;;;;18.67;13.53;;;;;;;4.38;100.00;103338.78;5010125;28;20292;-75
2022/11/12 06:57:01;;;;;;;18.60;13.37;;;;;;;4.32;100.00;103335.75;5017955;28;20274;-72
2022/11/12 06:59:45;;;;;;;20.67;13.33;;;;;;;4.30;100.00;103334.75;5012848;28;20629;-73
2022/11/12 07:02:29;;;;;;;15.93;12.77;;;;;;;4.26;100.00;103339.41;5017802;28;20205;-73
2022/11/12 07:05:13;;;;;;;15.03;11.30;;;;;;;4.26;100.00;103334.34;5009955;28;20316;-73
2022/11/12 07:07:56;;;;;;;16.33;12.57;;;;;;;4.24;100.00;103328.28;5016832;28;20242;-73
2022/11/12 07:10:40;;;;;;;21.07;12.53;;;;;;;4.27;100.00;103347.16;5018529;28;20213;-75
2022/11/12 07:13:24;;;;;;;16.20;12.97;;;;;;;4.28;100.00;103348.06;5021286;28;20247;-74
2022/11/12 07:16:10;;;;;;;15.03;11.47;;;;;;;4.31;100.00;103340.69;5008539;28;20183;-74
2022/11/12 07:18:53;;;;;;;17.33;12.53;;;;;;;4.32;100.00;103340.81;5011637;28;20253;-74
2022/11/12 07:21:37;;;;;;;28.60;19.37;;;;;;;4.36;100.00;103332.72;5015343;28;20198;-74
2022/11/12 07:24:21;;;;;;;36.13;26.47;;;;;;;4.40;100.00;103333.84;5011474;28;20222;-73
2022/11/12 07:27:05;;;;;;;39.13;27.67;;;;;;;4.40;100.00;103344.91;5021181;28;20211;-73
2022/11/12 07:29:49;;;;;;;17.40;13.03;;;;;;;4.45;100.00;103347.81;5013483;28;20572;-74
2022/11/12 07:32:33;;;;;;;18.87;13.30;;;;;;;4.43;100.00;103349.34;5016468;28;20784;-74
2022/11/12 07:35:17;;;;;;;14.27;11.03;;;;;;;4.44;100.00;103343.50;5012966;28;20218;-75
2022/11/12 07:38:01;;;;;;;15.87;11.60;;;;;;;4.43;100.00;103336.66;5013807;28;20186;-73
2022/11/12 07:40:45;;;;;;;16.63;11.23;;;;;;;4.47;100.00;103339.56;5015461;28;20238;-74
2022/11/12 07:43:30;;;;;;;14.60;10.77;;;;;;;4.52;100.00;103350.97;5014306;28;20206;-75
2022/11/12 07:46:20;;;;;;;15.40;9.87;;;;;;;4.59;100.00;103355.81;5013699;28;20754;-74
2022/11/12 07:49:04;;;;;;;16.83;10.13;;;;;;;4.66;100.00;103358.13;5026672;28;20186;-74
2022/11/12 07:51:48;;;;;;;13.27;9.90;;;;;;;4.68;100.00;103353.16;5017895;28;20210;-74
2022/11/12 07:54:32;;;;;;;14.03;9.90;;;;;;;4.72;100.00;103352.66;5013189;28;20225;-73
2022/11/12 07:57:16;;;;;;;14.47;10.30;;;;;;;4.79;100.00;103362.56;5015448;28;20241;-74
2022/11/12 08:00:00;;;;;;;12.60;9.03;;;;;;;4.91;100.00;103366.09;5022368;28;20190;-74
2022/11/12 08:02:44;;;;;;;12.27;9.30;;;;;;;4.96;100.00;103364.81;5019809;28;20674;-73
2022/11/12 08:05:28;;;;;;;14.87;9.73;;;;;;;4.97;100.00;103359.88;5016503;28;20285;-75
2022/11/12 08:08:12;;;;;;;13.03;9.30;;;;;;;5.04;100.00;103361.25;5007107;28;20212;-73
2022/11/12 08:10:57;;;;;;;16.07;9.33;;;;;;;5.10;100.00;103369.34;5017179;28;20687;-75
2022/11/12 08:13:41;;;;;;;11.27;8.07;;;;;;;5.17;100.00;103367.47;5021792;28;20209;-73
2022/11/12 08:16:25;;;;;;;11.87;7.93;;;;;;;5.23;100.00;103364.53;5012571;28;20190;-73
2022/11/12 08:19:09;;;;;;;19.57;14.30;;;;;;;5.29;100.00;103358.28;5017967;28;20237;-75
2022/11/12 08:21:53;;;;;;;14.03;9.03;;;;;;;5.38;100.00;103359.03;4980949;28;20237;-73
2022/11/12 08:24:37;;;;;;;14.03;9.20;;;;;;;5.41;100.00;103345.69;4992023;28;20246;-72
2022/11/12 08:27:21;;;;;;;13.53;8.23;;;;;;;5.54;100.00;103353.53;4995058;28;20277;-74
2022/11/12 08:30:06;;;;;;;11.80;8.77;;;;;;;5.69;100.00;103363.25;5000574;28;20210;-74
2022/11/12 08:33:02;;;;;;;9.77;7.80;;;;;;;5.82;98.92;103367.69;4988330;28;20250;-72
2022/11/12 08:35:46;;;;;;;12.90;8.60;;;;;;;6.08;98.99;103363.00;4995500;28;20311;-73
2022/11/12 08:38:30;;;;;;;11.63;7.77;;;;;;;6.16;97.55;103365.34;4998534;28;20249;-75
2022/11/12 08:41:15;;;;;;;14.20;9.13;;;;;;;6.21;97.71;103371.66;4998593;28;20238;-75
2022/11/12 08:43:58;;;;;;;13.23;9.70;;;;;;;6.52;96.37;103365.63;4994275;28;20226;-74
2022/11/12 08:46:42;;;;;;;12.00;8.50;;;;;;;6.84;95.24;103376.56;4989936;28;20211;-74
2022/11/12 08:49:27;;;;;;;11.67;8.93;;;;;;;6.80;94.78;103371.13;4996007;28;20207;-75
2022/11/12 08:52:11;;;;;;;10.43;8.13;;;;;;;6.96;93.57;103369.81;4994802;28;20187;-75
2022/11/12 08:54:55;;;;;;;12.27;7.60;;;;;;;8.00;91.33;103378.34;4997218;28;20230;-74
2022/11/12 08:57:41;;;;;;;7.90;6.73;;;;;;;10.66;82.65;103373.91;4991403;28;20190;-75
2022/11/12 09:00:25;;;;;;;7.53;5.70;;;;;;;13.17;68.20;103357.00;4992167;28;20210;-75
2022/11/12 09:03:15;;;;;;;7.80;5.33;;;;;;;14.04;62.21;103350.06;4995268;28;20683;-75
2022/11/12 09:06:02;;;;;;;6.00;5.23;;;;;;;13.84;61.22;103349.13;4991149;28;21048;-75
2022/11/12 09:08:46;;;;;;;6.13;5.43;;;;;;;11.56;66.77;103363.78;4998583;28;20293;-76
2022/11/12 09:11:30;;;;;;;7.87;5.90;;;;;;;10.14;74.11;103366.38;4998666;28;20272;-76
2022/11/12 09:14:14;;;;;;;9.80;6.37;;;;;;;11.06;74.35;103359.16;4998158;28;20265;-76
2022/11/12 09:16:58;;;;;;;7.37;5.10;;;;;;;14.04;63.33;103348.34;4999444;28;20565;-77
2022/11/12 09:19:42;;;;;;;6.07;4.90;;;;;;;15.83;56.91;103337.94;4999861;28;20194;-75
2022/11/12 09:22:26;;;;;;;5.83;4.70;;;;;;;15.94;52.87;103340.13;4987941;28;20286;-77
2022/11/12 09:25:10;;;;;;;6.93;4.87;;;;;;;16.60;52.39;103326.19;5001870;28;20223;-76
2022/11/12 09:27:54;;;;;;;5.45;4.82;;;;;;;17.27;50.39;103338.00;4992892;28;20327;-75
2022/11/12 09:30:42;;;;;;;6.13;4.97;;;;;;;15.52;55.13;103348.81;4996741;28;20321;-76
2022/11/12 09:33:31;;;;;;;7.10;6.40;;;;;;;14.93;55.67;103335.19;5007707;28;20207;-77
2022/11/12 09:36:16;;;;;;;9.20;7.90;;;;;;;15.42;55.84;103331.19;5006218;28;20710;-77
2022/11/12 09:39:00;;;;;;;6.93;5.53;;;;;;;14.56;58.35;103354.16;5001718;28;20210;-77
2022/11/12 09:41:45;;;;;;;6.13;5.47;;;;;;;14.58;59.26;103348.25;4998357;28;20627;-76
2022/11/12 09:44:30;;;;;;;8.07;6.10;;;;;;;14.69;59.00;103348.72;4993707;28;20634;-76
2022/11/12 09:47:21;;;;;;;7.03;5.87;;;;;;;16.68;54.71;103328.25;4991959;28;20215;-75
2022/11/12 09:50:20;;;;;;;7.57;5.00;;;;;;;17.30;52.14;103330.28;4997548;28;20265;-76
2022/11/12 09:53:15;;;;;;;5.70;5.10;;;;;;;16.11;53.72;103326.13;5002834;28;20202;-76
2022/11/12 09:56:00;;;;;;;6.07;5.10;;;;;;;16.41;54.56;103332.44;5002419;28;20259;-77
2022/11/12 09:58:44;;;;;;;6.60;5.90;;;;;;;16.34;54.51;103337.31;5001734;28;20202;-76
2022/11/12 10:01:34;;;;;;;5.43;4.90;;;;;;;17.17;52.77;103328.16;4994110;28;20238;-75
2022/11/12 10:04:37;;;;;;;6.33;4.63;;;;;;;18.81;49.01;103323.56;4991517;28;20259;-74
2022/11/12 10:07:30;;;;;;;5.57;4.83;;;;;;;18.12;49.01;103338.09;4990502;28;20218;-75
2022/11/12 10:10:41;;;;;;;8.57;5.57;;;;;;;17.55;50.62;103328.56;4993504;28;20253;-75
2022/11/12 10:13:54;;;;;;;6.37;5.33;;;;;;;19.21;46.15;103319.38;5000603;28;20217;-72
2022/11/12 10:16:50;;;;;;;6.10;5.53;;;;;;;20.36;44.06;103325.44;5002335;28;20690;-73
2022/11/12 10:19:43;;;;;;;5.90;4.70;;;;;;;22.76;39.96;103321.19;4999639;28;20207;-73
2022/11/12 10:23:21;;;;;;;6.63;4.93;;;;;;;21.74;40.09;103326.06;4970958;28;20293;-74
2022/11/12 10:26:16;;;;;;;6.57;5.13;;;;;;;21.84;40.19;103332.28;4995635;28;20833;-76
2022/11/12 10:29:15;;;;;;;5.50;4.90;;;;;;;17.64;49.63;103344.38;5002125;28;20233;-75
2022/11/12 10:32:01;;;;;;;6.60;5.77;;;;;;;17.52;51.84;103349.22;5002209;28;20553;-75
2022/11/12 10:34:45;;;;;;;5.70;5.03;;;;;;;16.84;54.25;103337.38;4992578;28;20225;-74
2022/11/12 10:38:04;;;;;;;6.33;5.73;;;;;;;16.38;55.30;103340.06;5002881;28;20266;-76
2022/11/12 10:40:48;;;;;;;11.17;6.50;;;;;;;17.14;53.52;103328.06;5004474;28;20206;-73
2022/11/12 10:43:32;;;;;;;6.37;5.77;;;;;;;17.05;52.16;103343.28;4993413;28;20994;-75
2022/11/12 10:46:23;;;;;;;7.93;6.03;;;;;;;17.59;53.13;103340.78;4997320;28;20285;-74
2022/11/12 10:49:27;;;;;;;7.43;5.90;;;;;;;17.57;51.92;103331.19;4985856;28;20195;-76
2022/11/12 10:52:23;;;;;;;7.47;6.25;;;;;;;19.91;47.86;103317.56;4991390;28;20193;-73
2022/11/12 10:55:20;;;;;;;7.82;5.93;;;;;;;25.78;36.06;103307.25;4993021;28;20274;-73
2022/11/12 10:58:10;;;;;;;8.18;5.55;;;;;;;27.19;31.84;103298.50;5000850;28;20339;-72
2022/11/12 11:00:57;;;;;;;6.55;4.93;;;;;;;27.63;31.00;103285.69;4994989;28;20566;-73
2022/11/12 11:03:52;;;;;;;6.57;5.72;;;;;;;29.31;29.27;103282.25;4987629;28;20724;-74
2022/11/12 11:06:36;;;;;;;10.32;6.20;;;;;;;29.46;30.26;103300.44;4998747;28;20286;-75
2022/11/12 11:09:20;;;;;;;7.15;5.95;;;;;;;30.38;28.47;103302.00;4999938;28;20202;-75
2022/11/12 11:12:20;;;;;;;6.22;5.57;;;;;;;30.39;28.41;103297.59;5003266;28;20278;-74
2022/11/12 11:15:21;;;;;;;7.20;6.03;;;;;;;31.02;26.80;103274.84;4986568;28;20277;-75
2022/11/12 11:18:10;;;;;;;6.55;5.78;;;;;;;31.38;25.82;103273.84;4990013;28;20193;-76
2022/11/12 11:21:30;;;;;;;7.35;5.63;;;;;;;32.75;24.41;103274.00;4981879;28;20270;-75
2022/11/12 11:24:42;;;;;;;7.53;6.07;;;;;;;32.49;24.83;103265.13;4991945;28;20250;-74
2022/11/12 11:27:36;;;;;;;6.80;5.60;;;;;;;30.89;26.54;103260.19;4986364;28;20254;-75
2022/11/12 11:30:21;;;;;;;7.00;6.13;;;;;;;31.86;25.13;103261.88;4992612;28;20640;-75
2022/11/12 11:33:25;;;;;;;6.22;5.63;;;;;;;32.04;25.88;103271.91;4997409;28;20198;-71
2022/11/12 11:36:18;;;;;;;5.60;5.10;;;;;;;32.28;25.02;103271.16;5002124;28;20201;-76
2022/11/12 11:39:32;;;;;;;6.68;5.82;;;;;;;31.25;24.97;103264.53;4989798;28;20273;-76
2022/11/12 11:42:34;;;;;;;7.43;6.63;;;;;;;32.89;23.39;103249.63;4995221;28;20258;-76
2022/11/12 11:46:04;;;;;;;7.18;5.90;;;;;;;31.86;24.84;103262.72;4995907;28;20261;-74
2022/11/12 11:49:03;;;;;;;6.75;5.88;;;;;;;30.03;27.78;103275.47;4993012;28;20203;-75
2022/11/12 11:52:00;;;;;;;6.07;5.50;;;;;;;32.06;25.43;103260.34;4996138;28;20667;-76
2022/11/12 11:55:03;;;;;;;7.32;5.70;;;;;;;32.57;24.02;103257.81;4995950;28;20270;-75
2022/11/12 11:58:04;;;;;;;8.10;6.05;;;;;;;29.98;27.29;103274.72;4998757;28;20195;-75
2022/11/12 12:01:11;;;;;;;6.85;6.25;;;;;;;29.30;28.72;103270.81;5003297;28;20828;-75
2022/11/12 12:04:18;;;;;;;6.88;6.22;;;;;;;25.00;35.58;103289.03;5005304;28;20744;-76
2022/11/12 12:07:05;;;;;;;7.05;6.35;;;;;;;23.90;38.33;103300.19;4998602;28;20269;-76
2022/11/12 12:10:08;;;;;;;7.10;6.30;;;;;;;25.14;36.45;103278.56;4994166;28;20249;-76
2022/11/12 12:13:20;;;;;;;8.38;6.07;;;;;;;25.35;35.70;103276.78;4995689;28;20253;-74
2022/11/12 12:16:04;;;;;;;7.45;6.75;;;;;;;22.95;40.06;103299.56;4991524;28;20254;-76
2022/11/12 12:19:18;;;;;;;8.30;6.90;;;;;;;21.50;42.48;103311.75;5004771;28;20194;-76
2022/11/12 12:22:08;;;;;;;7.30;6.63;;;;;;;20.18;44.98;103301.66;4990659;28;20698;-76
2022/11/12 12:24:57;;;;;;;7.93;6.47;;;;;;;19.59;48.20;103313.41;5002549;28;20832;-75
2022/11/12 12:27:52;;;;;;;9.93;6.93;;;;;;;19.84;47.57;103305.25;4995045;28;20230;-76
2022/11/12 12:30:43;;;;;;;7.63;6.83;;;;;;;19.55;48.04;103301.16;4988726;28;20234;-76
2022/11/12 12:33:31;;;;;;;8.50;6.80;;;;;;;19.14;49.75;103306.22;5000686;28;20198;-75
2022/11/12 12:36:19;;;;;;;8.30;7.23;;;;;;;19.23;50.26;103289.16;5004583;28;20269;-75
2022/11/12 12:39:17;;;;;;;9.67;6.67;;;;;;;18.90;50.53;103290.03;4998197;28;20201;-76
2022/11/12 12:42:42;;;;;;;7.30;6.60;;;;;;;18.85;51.01;103299.44;5010511;28;20265;-76
2022/11/12 12:45:36;;;;;;;9.83;7.00;;;;;;;18.55;51.56;103299.53;5001275;28;20242;-75
2022/11/12 12:48:31;;;;;;;9.90;7.57;;;;;;;18.36;51.77;103279.13;5008609;28;20221;-76
2022/11/12 12:51:15;;;;;;;7.07;6.37;;;;;;;18.12;52.21;103273.25;5011800;28;20281;-76
2022/11/12 12:53:59;;;;;;;8.90;7.07;;;;;;;18.27;52.18;103275.34;5010485;28;20222;-76
2022/11/12 12:56:46;;;;;;;9.27;6.63;;;;;;;18.16;51.88;103266.41;5011014;28;20214;-76
2022/11/12 12:59:30;;;;;;;11.10;7.23;;;;;;;18.27;51.70;103264.97;5010843;28;20252;-76
2022/11/12 13:02:23;;;;;;;7.57;6.43;;;;;;;19.18;49.51;103262.16;5009981;28;20198;-76
2022/11/12 13:05:26;;;;;;;8.73;6.90;;;;;;;18.04;51.52;103261.75;5003205;28;20221;-76
2022/11/12 13:08:22;;;;;;;9.23;6.90;;;;;;;17.69;53.39;103269.38;5007728;28;20237;-76
2022/11/12 13:11:06;;;;;;;8.40;6.73;;;;;;;17.10;53.82;103267.53;5008039;28;20198;-76
2022/11/12 13:13:50;;;;;;;8.33;7.03;;;;;;;16.94;55.50;103260.09;5010998;28;20210;-76
2022/11/12 13:16:49;;;;;;;9.00;6.93;;;;;;;16.79;55.96;103253.53;5009339;28;20206;-76